createdAt,value
2023-04-02T00:01:05.993Z,0
2023-04-02T00:02:46.511Z,0
2023-04-02T00:04:26.830Z,0
2023-04-02T00:06:07.242Z,0
2023-04-02T00:07:47.608Z,0
2023-04-02T00:09:27.947Z,0
2023-04-02T00:11:08.404Z,0
2023-04-02T00:12:48.802Z,0
2023-04-02T00:14:29.202Z,0
2023-04-02T00:16:09.589Z,0
2023-04-02T00:17:50.000Z,0
2023-04-02T00:19:30.339Z,0
2023-04-02T00:21:10.740Z,0
2023-04-02T00:22:51.131Z,0
2023-04-02T00:24:31.468Z,0
2023-04-02T00:26:11.836Z,0
2023-04-02T00:27:52.198Z,0
2023-04-02T00:29:32.541Z,0
2023-04-02T00:31:12.945Z,0
2023-04-02T00:32:53.299Z,0
2023-04-02T00:34:33.668Z,0
2023-04-02T00:36:14.141Z,0
2023-04-02T00:37:54.517Z,0
2023-04-02T00:39:35.000Z,0
2023-04-02T00:41:15.458Z,0
2023-04-02T00:42:55.777Z,0
2023-04-02T00:44:36.162Z,0
2023-04-02T00:46:16.575Z,0
2023-04-02T00:47:57.017Z,0
2023-04-02T00:49:37.346Z,0
2023-04-02T00:51:17.696Z,0
2023-04-02T00:52:58.127Z,0
2023-04-02T00:54:38.562Z,0
2023-04-02T00:56:19.096Z,0
2023-04-02T00:57:59.488Z,0
2023-04-02T00:59:39.860Z,0
2023-04-02T01:01:20.271Z,0
2023-04-02T01:03:00.701Z,0
2023-04-02T01:04:41.013Z,0
2023-04-02T01:06:21.450Z,0
2023-04-02T01:08:01.831Z,0
2023-04-02T01:09:42.243Z,0
2023-04-02T01:11:22.645Z,0
2023-04-02T01:13:02.998Z,0
2023-04-02T01:14:43.379Z,0
2023-04-02T01:16:23.936Z,0
2023-04-02T01:18:04.252Z,0
2023-04-02T01:19:44.658Z,0
2023-04-02T01:21:25.132Z,0
2023-04-02T01:23:05.524Z,0
2023-04-02T01:24:45.892Z,0
2023-04-02T01:26:26.400Z,0
2023-04-02T01:28:06.766Z,0
2023-04-02T01:29:47.169Z,0
2023-04-02T01:31:27.607Z,0
2023-04-02T01:33:08.020Z,0
2023-04-02T01:34:48.436Z,0
2023-04-02T01:36:28.769Z,0
2023-04-02T01:38:09.103Z,0
2023-04-02T01:39:49.426Z,0
2023-04-02T01:41:29.850Z,0
2023-04-02T01:43:10.292Z,0
2023-04-02T01:44:50.689Z,0
2023-04-02T01:46:31.044Z,0
2023-04-02T01:48:11.463Z,0
2023-04-02T01:49:51.784Z,0
2023-04-02T01:51:32.191Z,0
2023-04-02T01:53:12.563Z,0
2023-04-02T01:54:53.033Z,0
2023-04-02T01:56:33.515Z,0
2023-04-02T01:58:13.882Z,0
2023-04-02T01:59:54.189Z,0
2023-04-02T02:01:34.611Z,0
2023-04-02T02:03:14.984Z,0
2023-04-02T02:04:55.299Z,0
2023-04-02T02:06:50.787Z,0
2023-04-02T02:08:16.094Z,0
2023-04-02T02:09:56.466Z,0
2023-04-02T02:11:36.957Z,0
2023-04-02T02:13:17.353Z,0
2023-04-02T02:16:38.116Z,0
2023-04-02T02:18:18.533Z,0
2023-04-02T02:19:58.941Z,0
2023-04-02T02:21:39.370Z,0
2023-04-02T02:23:19.784Z,0
2023-04-02T02:25:00.145Z,0
2023-04-02T02:26:40.460Z,0
2023-04-02T02:28:20.895Z,0
2023-04-02T02:30:01.270Z,0
2023-04-02T02:31:41.736Z,0
2023-04-02T02:33:22.102Z,0
2023-04-02T02:35:02.464Z,0
2023-04-02T02:36:42.926Z,0
2023-04-02T02:38:23.277Z,0
2023-04-02T02:40:03.650Z,0
2023-04-02T02:41:44.016Z,0
2023-04-02T02:43:24.441Z,0
2023-04-02T02:45:04.886Z,0
2023-04-02T02:46:45.249Z,0
2023-04-02T02:48:25.738Z,0
2023-04-02T02:50:06.042Z,0
2023-04-02T02:51:46.490Z,0
2023-04-02T02:53:26.919Z,0
2023-04-02T02:55:07.253Z,0
2023-04-02T02:56:47.574Z,0
2023-04-02T02:58:27.917Z,0
2023-04-02T03:00:08.274Z,0
2023-04-02T03:01:48.654Z,0
2023-04-02T03:03:29.177Z,0
2023-04-02T03:05:09.575Z,0
2023-04-02T03:06:49.805Z,0
2023-04-02T03:08:30.189Z,0
2023-04-02T03:10:10.600Z,0
2023-04-02T03:11:50.951Z,0
2023-04-02T03:13:31.307Z,0
2023-04-02T03:15:11.646Z,0
2023-04-02T03:16:52.081Z,0
2023-04-02T03:18:32.514Z,0
2023-04-02T03:20:12.892Z,0
2023-04-02T03:21:53.301Z,0
2023-04-02T03:23:33.654Z,0
2023-04-02T03:25:14.069Z,0
2023-04-02T03:26:54.447Z,0
2023-04-02T03:28:34.863Z,0
2023-04-02T03:30:15.235Z,0
2023-04-02T03:31:55.547Z,0
2023-04-02T03:33:35.942Z,0
2023-04-02T03:35:16.219Z,0
2023-04-02T03:36:56.637Z,0
2023-04-02T03:38:37.050Z,0
2023-04-02T03:40:17.487Z,0
2023-04-02T03:41:57.868Z,0
2023-04-02T03:43:38.298Z,0
2023-04-02T03:45:18.706Z,0
2023-04-02T03:46:59.062Z,0
2023-04-02T03:48:39.422Z,0
2023-04-02T03:50:19.840Z,0
2023-04-02T03:52:00.178Z,0
2023-04-02T03:53:40.543Z,0
2023-04-02T03:55:20.950Z,0
2023-04-02T03:57:01.393Z,0
2023-04-02T03:58:41.715Z,0
2023-04-02T04:00:22.038Z,0
2023-04-02T04:02:02.436Z,0
2023-04-02T04:03:42.834Z,0
2023-04-02T04:05:23.215Z,0
2023-04-02T04:07:03.648Z,0
2023-04-02T04:08:44.066Z,0
2023-04-02T04:10:24.517Z,0
2023-04-02T04:12:04.813Z,0
2023-04-02T04:13:45.233Z,0
2023-04-02T04:15:25.617Z,0
2023-04-02T04:17:05.991Z,0
2023-04-02T04:18:46.425Z,1
2023-04-02T04:20:26.910Z,0
2023-04-02T04:22:07.230Z,1
2023-04-02T04:23:47.606Z,1
2023-04-02T04:25:27.977Z,1
2023-04-02T04:27:08.308Z,2
2023-04-02T04:28:48.748Z,3
2023-04-02T04:30:29.143Z,3
2023-04-02T04:32:09.511Z,4
2023-04-02T04:33:49.844Z,5
2023-04-02T04:35:30.254Z,7
2023-04-02T04:37:10.639Z,10
2023-04-02T04:38:50.968Z,13
2023-04-02T04:40:31.268Z,18
2023-04-02T04:42:11.631Z,22
2023-04-02T04:43:51.963Z,28
2023-04-02T04:45:32.601Z,35
2023-04-02T04:47:12.661Z,38
2023-04-02T04:48:53.062Z,47
2023-04-02T04:50:33.514Z,54
2023-04-02T04:52:13.848Z,75
2023-04-02T04:53:54.133Z,81
2023-04-02T04:55:34.683Z,91
2023-04-02T04:57:14.947Z,94
2023-04-02T04:58:55.345Z,110
2023-04-02T05:00:35.753Z,125
2023-04-02T05:02:16.144Z,159
2023-04-02T05:03:56.480Z,195
2023-04-02T05:05:37.115Z,213
2023-04-02T05:07:17.225Z,228
2023-04-02T05:08:57.578Z,235
2023-04-02T05:10:38.056Z,269
2023-04-02T05:12:18.489Z,280
2023-04-02T05:13:58.912Z,331
2023-04-02T05:15:39.585Z,323
2023-04-02T05:17:19.693Z,340
2023-04-02T05:19:00.064Z,361
2023-04-02T05:20:40.535Z,420
2023-04-02T05:22:20.939Z,466
2023-04-02T05:24:01.395Z,414
2023-04-02T05:25:41.778Z,422
2023-04-02T05:27:22.159Z,486
2023-04-02T05:29:02.488Z,543
2023-04-02T05:30:42.929Z,640
2023-04-02T05:32:23.300Z,711
2023-04-02T05:34:03.706Z,782
2023-04-02T05:35:44.160Z,990
2023-04-02T05:37:24.439Z,1033
2023-04-02T05:39:04.801Z,1025
2023-04-02T05:40:45.090Z,1073
2023-04-02T05:42:25.463Z,1187
2023-04-02T05:44:05.888Z,1310
2023-04-02T05:45:46.322Z,1429
2023-04-02T05:47:26.835Z,1404
2023-04-02T05:49:07.252Z,1527
2023-04-02T05:50:47.661Z,1556
2023-04-02T05:52:28.056Z,1534
2023-04-02T05:54:08.417Z,1533
2023-04-02T05:55:48.780Z,1385
2023-04-02T05:57:42.853Z,1231
2023-04-02T05:59:09.611Z,1130
2023-04-02T06:00:49.927Z,1153
2023-04-02T06:02:30.390Z,1164
2023-04-02T06:04:10.808Z,1175
2023-04-02T06:05:51.010Z,1163
2023-04-02T06:07:31.443Z,1230
2023-04-02T06:09:11.839Z,1317
2023-04-02T06:10:52.293Z,1452
2023-04-02T06:12:32.670Z,1445
2023-04-02T06:14:13.029Z,1561
2023-04-02T06:15:53.404Z,1691
2023-04-02T06:17:33.754Z,1802
2023-04-02T06:19:14.055Z,1811
2023-04-02T06:20:54.466Z,1852
2023-04-02T06:22:34.918Z,1995
2023-04-02T06:24:15.285Z,2114
2023-04-02T06:25:55.769Z,2173
2023-04-02T06:27:36.106Z,2259
2023-04-02T06:29:16.554Z,2300
2023-04-02T06:30:56.947Z,2378
2023-04-02T06:32:37.317Z,2412
2023-04-02T06:34:17.734Z,2527
2023-04-02T06:35:58.214Z,2850
2023-04-02T06:37:38.600Z,2690
2023-04-02T06:39:19.009Z,2852
2023-04-02T06:40:59.338Z,3072
2023-04-02T06:42:39.803Z,3405
2023-04-02T06:44:20.358Z,3471
2023-04-02T06:46:00.659Z,3676
2023-04-02T06:47:41.137Z,3779
2023-04-02T06:49:21.511Z,4034
2023-04-02T06:51:01.926Z,4264
2023-04-02T06:52:42.355Z,4674
2023-04-02T06:54:22.801Z,4906
2023-04-02T06:56:03.156Z,5145
2023-04-02T06:57:43.523Z,5169
2023-04-02T06:59:23.826Z,5077
2023-04-02T07:01:04.381Z,5164
2023-04-02T07:02:44.665Z,5113
2023-04-02T07:04:25.005Z,5219
2023-04-02T07:06:05.286Z,5508
2023-04-02T07:07:45.725Z,5681
2023-04-02T07:09:26.091Z,6046
2023-04-02T07:11:06.521Z,6174
2023-04-02T07:12:46.950Z,6035
2023-04-02T07:14:27.288Z,6049
2023-04-02T07:16:07.895Z,6135
2023-04-02T07:17:48.171Z,6489
2023-04-02T07:19:28.527Z,6802
2023-04-02T07:21:08.910Z,6962
2023-04-02T07:22:49.364Z,7074
2023-04-02T07:24:29.751Z,7026
2023-04-02T07:26:10.180Z,7353
2023-04-02T07:27:50.512Z,7531
2023-04-02T07:29:30.845Z,7488
2023-04-02T07:31:11.270Z,7567
2023-04-02T07:32:51.782Z,7709
2023-04-02T07:34:32.098Z,8153
2023-04-02T07:36:12.536Z,8060
2023-04-02T07:37:52.998Z,7912
2023-04-02T07:39:35.535Z,7160
2023-04-02T07:41:13.816Z,6953
2023-04-02T07:42:54.251Z,7609
2023-04-02T07:44:34.721Z,8246
2023-04-02T07:46:15.119Z,8721
2023-04-02T07:47:55.555Z,9345
2023-04-02T07:49:35.935Z,9726
2023-04-02T07:51:16.381Z,9693
2023-04-02T07:52:56.784Z,9915
2023-04-02T07:54:37.179Z,9933
2023-04-02T07:56:17.525Z,10447
2023-04-02T07:57:57.898Z,10921
2023-04-02T07:59:38.315Z,10519
2023-04-02T08:01:18.625Z,10220
2023-04-02T08:02:59.178Z,10521
2023-04-02T08:04:39.457Z,11097
2023-04-02T08:06:19.957Z,10838
2023-04-02T08:08:00.265Z,10585
2023-04-02T08:09:40.685Z,10130
2023-04-02T08:11:21.014Z,9774
2023-04-02T08:13:01.271Z,9521
2023-04-02T08:14:41.608Z,9624
2023-04-02T08:16:22.033Z,10173
2023-04-02T08:18:02.472Z,9878
2023-04-02T08:19:54.262Z,9928
2023-04-02T08:21:23.185Z,9777
2023-04-02T08:23:03.592Z,10973
2023-04-02T08:24:43.900Z,10987
2023-04-02T08:26:24.242Z,12127
2023-04-02T08:28:04.675Z,13385
2023-04-02T08:29:45.149Z,13941
2023-04-02T08:31:25.572Z,13954
2023-04-02T08:33:05.939Z,13719
2023-04-02T08:34:46.367Z,13015
2023-04-02T08:36:26.842Z,12626
2023-04-02T08:38:07.184Z,14163
2023-04-02T08:39:47.709Z,15309
2023-04-02T08:41:28.088Z,14135
2023-04-02T08:43:08.533Z,17848
2023-04-02T08:44:48.886Z,20608
2023-04-02T08:46:29.303Z,18736
2023-04-02T08:48:09.692Z,17896
2023-04-02T08:49:50.116Z,18936
2023-04-02T08:51:30.526Z,20608
2023-04-02T08:53:10.930Z,20560
2023-04-02T08:54:51.293Z,18872
2023-04-02T08:56:31.712Z,20168
2023-04-02T08:58:12.133Z,24464
2023-04-02T08:59:52.585Z,21056
2023-04-02T09:01:32.855Z,27688
2023-04-02T09:03:13.236Z,23032
2023-04-02T09:04:53.710Z,30440
2023-04-02T09:06:34.144Z,63848
2023-04-02T09:08:14.517Z,31208
2023-04-02T09:09:54.904Z,41048
2023-04-02T09:11:35.268Z,46760
2023-04-02T09:13:15.643Z,60480
2023-04-02T09:14:56.013Z,45152
2023-04-02T09:16:36.334Z,31272
2023-04-02T09:18:16.822Z,32864
2023-04-02T09:19:57.081Z,30496
2023-04-02T09:21:37.486Z,31672
2023-04-02T09:23:17.797Z,29536
2023-04-02T09:24:58.114Z,24800
2023-04-02T09:26:38.661Z,25464
2023-04-02T09:28:19.016Z,26056
2023-04-02T09:29:59.447Z,27360
2023-04-02T09:31:39.908Z,26032
2023-04-02T09:33:20.220Z,25064
2023-04-02T09:35:00.568Z,25928
2023-04-02T09:36:41.002Z,25024
2023-04-02T09:38:21.507Z,23952
2023-04-02T09:40:01.842Z,25456
2023-04-02T09:41:42.906Z,29184
2023-04-02T09:43:22.732Z,27856
2023-04-02T09:45:03.053Z,27368
2023-04-02T09:46:43.480Z,26200
2023-04-02T09:48:23.868Z,25400
2023-04-02T09:50:04.279Z,25600
2023-04-02T09:51:44.649Z,24464
2023-04-02T09:53:25.097Z,25184
2023-04-02T09:55:05.537Z,27064
2023-04-02T09:56:45.839Z,27352
2023-04-02T09:58:26.265Z,26144
2023-04-02T10:00:08.805Z,24800
2023-04-02T10:01:46.998Z,25848
2023-04-02T10:03:27.359Z,30928
2023-04-02T10:05:07.707Z,36848
2023-04-02T10:06:48.028Z,37424
2023-04-02T10:08:28.456Z,41672
2023-04-02T10:10:08.838Z,65535
2023-04-02T10:11:49.188Z,46256
2023-04-02T10:13:29.547Z,65535
2023-04-02T10:15:09.994Z,52256
2023-04-02T10:16:50.500Z,60216
2023-04-02T10:18:30.846Z,52064
2023-04-02T10:20:11.295Z,43728
2023-04-02T10:21:51.700Z,63664
2023-04-02T10:23:32.090Z,46312
2023-04-02T10:25:12.559Z,38264
2023-04-02T10:26:52.843Z,34736
2023-04-02T10:28:33.124Z,37632
2023-04-02T10:30:13.623Z,37504
2023-04-02T10:31:53.948Z,41392
2023-04-02T10:33:34.311Z,34832
2023-04-02T10:35:14.805Z,35920
2023-04-02T10:36:55.234Z,42888
2023-04-02T10:38:35.654Z,38304
2023-04-02T10:40:16.042Z,36920
2023-04-02T10:41:56.437Z,34368
2023-04-02T10:43:36.844Z,34720
2023-04-02T10:45:17.265Z,33904
2023-04-02T10:46:57.679Z,34968
2023-04-02T10:48:38.111Z,35320
2023-04-02T10:50:18.459Z,35992
2023-04-02T10:51:58.874Z,65535
2023-04-02T10:53:39.261Z,49120
2023-04-02T10:55:19.721Z,65535
2023-04-02T10:57:00.237Z,55712
2023-04-02T10:58:40.576Z,45952
2023-04-02T11:00:20.937Z,41768
2023-04-02T11:02:01.362Z,36880
2023-04-02T11:03:41.970Z,34640
2023-04-02T11:05:22.081Z,33416
2023-04-02T11:07:13.267Z,30272
2023-04-02T11:08:42.948Z,27448
2023-04-02T11:10:23.301Z,28360
2023-04-02T11:12:03.643Z,26928
2023-04-02T11:13:47.088Z,26160
2023-04-02T11:15:24.488Z,26824
2023-04-02T11:17:04.863Z,27048
2023-04-02T11:18:45.250Z,25312
2023-04-02T11:20:25.587Z,24464
2023-04-02T11:22:06.844Z,25800
2023-04-02T11:23:46.472Z,28344
2023-04-02T11:25:29.936Z,28352
2023-04-02T11:27:07.312Z,29224
2023-04-02T11:28:47.639Z,26840
2023-04-02T11:30:28.028Z,25512
2023-04-02T11:32:08.337Z,24248
2023-04-02T11:33:50.078Z,22504
2023-04-02T11:35:29.080Z,22024
2023-04-02T11:37:09.421Z,23328
2023-04-02T11:38:51.708Z,23888
2023-04-02T11:40:30.244Z,22464
2023-04-02T11:42:10.609Z,22432
2023-04-02T11:43:50.962Z,24488
2023-04-02T11:45:33.754Z,26040
2023-04-02T11:47:11.733Z,26040
2023-04-02T11:48:52.092Z,26648
2023-04-02T11:50:32.374Z,25328
2023-04-02T11:52:13.019Z,29200
2023-04-02T11:53:53.263Z,27096
2023-04-02T11:55:33.862Z,25112
2023-04-02T11:57:14.245Z,27920
2023-04-02T11:58:54.657Z,30704
2023-04-02T12:00:35.259Z,26224
2023-04-02T12:02:15.500Z,23184
2023-04-02T12:03:55.920Z,25400
2023-04-02T12:05:36.647Z,30704
2023-04-02T12:07:16.702Z,30592
2023-04-02T12:08:58.287Z,29400
2023-04-02T12:10:37.473Z,30456
2023-04-02T12:12:17.873Z,31792
2023-04-02T12:13:58.240Z,26040
2023-04-02T12:15:38.626Z,34192
2023-04-02T12:17:19.056Z,65535
2023-04-02T12:18:59.508Z,40432
2023-04-02T12:20:39.838Z,65535
2023-04-02T12:22:20.202Z,31648
2023-04-02T12:24:00.667Z,31088
2023-04-02T12:25:41.117Z,65535
2023-04-02T12:27:21.450Z,36472
2023-04-02T12:29:01.836Z,27000
2023-04-02T12:30:42.149Z,27944
2023-04-02T12:32:22.557Z,31440
2023-04-02T12:34:05.983Z,30416
2023-04-02T12:35:43.327Z,34704
2023-04-02T12:37:23.716Z,62328
2023-04-02T12:39:04.004Z,47152
2023-04-02T12:40:44.401Z,64040
2023-04-02T12:42:24.725Z,55584
2023-04-02T12:44:05.194Z,32912
2023-04-02T12:45:45.515Z,28896
2023-04-02T12:47:26.056Z,26112
2023-04-02T12:49:06.306Z,25936
2023-04-02T12:50:46.713Z,27336
2023-04-02T12:52:27.170Z,27448
2023-04-02T12:54:07.514Z,27160
2023-04-02T12:55:47.876Z,28400
2023-04-02T12:57:31.353Z,28696
2023-04-02T12:59:08.607Z,28928
2023-04-02T13:00:49.018Z,26392
2023-04-02T13:02:29.399Z,28288
2023-04-02T13:04:09.742Z,29224
2023-04-02T13:05:50.080Z,27960
2023-04-02T13:07:30.453Z,30048
2023-04-02T13:09:10.922Z,34280
2023-04-02T13:10:54.370Z,29968
2023-04-02T13:12:31.757Z,30488
2023-04-02T13:14:12.214Z,30272
2023-04-02T13:15:52.575Z,28872
2023-04-02T13:17:32.931Z,26592
2023-04-02T13:19:13.321Z,65535
2023-04-02T13:20:53.659Z,24824
2023-04-02T13:22:34.075Z,26728
2023-04-02T13:24:14.441Z,30096
2023-04-02T13:25:54.919Z,31160
2023-04-02T13:27:35.264Z,34352
2023-04-02T13:29:15.647Z,37720
2023-04-02T13:30:56.077Z,27136
2023-04-02T13:32:36.546Z,27304
2023-04-02T13:34:16.906Z,30800
2023-04-02T13:36:00.471Z,26744
2023-04-02T13:37:37.853Z,28256
2023-04-02T13:39:18.153Z,24976
2023-04-02T13:40:58.607Z,24888
2023-04-02T13:42:39.005Z,27312
2023-04-02T13:44:19.464Z,29392
2023-04-02T13:45:59.948Z,29160
2023-04-02T13:47:41.365Z,28728
2023-04-02T13:49:20.655Z,25896
2023-04-02T13:51:01.044Z,22440
2023-04-02T13:52:41.426Z,20144
2023-04-02T13:54:21.859Z,19120
2023-04-02T13:56:02.261Z,18984
2023-04-02T13:57:42.693Z,19472
2023-04-02T13:59:23.126Z,20584
2023-04-02T14:01:03.524Z,23104
2023-04-02T14:02:43.912Z,24480
2023-04-02T14:04:24.381Z,22488
2023-04-02T14:06:04.700Z,21024
2023-04-02T14:07:45.097Z,19368
2023-04-02T14:09:25.563Z,18744
2023-04-02T14:11:05.931Z,19344
2023-04-02T14:12:46.478Z,23808
2023-04-02T14:14:26.907Z,26728
2023-04-02T14:16:07.349Z,25152
2023-04-02T14:17:50.843Z,25056
2023-04-02T14:19:28.254Z,28008
2023-04-02T14:21:08.671Z,30720
2023-04-02T14:22:49.061Z,24936
2023-04-02T14:24:29.474Z,24152
2023-04-02T14:26:09.936Z,24144
2023-04-02T14:27:50.322Z,22648
2023-04-02T14:29:30.686Z,20976
2023-04-02T14:31:11.145Z,22104
2023-04-02T14:32:51.608Z,21880
2023-04-02T14:34:32.265Z,22488
2023-04-02T14:36:12.637Z,22384
2023-04-02T14:37:53.077Z,21576
2023-04-02T14:39:33.645Z,20744
2023-04-02T14:41:14.068Z,20688
2023-04-02T14:42:54.427Z,19344
2023-04-02T14:44:34.833Z,23216
2023-04-02T14:46:15.317Z,49688
2023-04-02T14:47:55.791Z,58832
2023-04-02T14:49:36.063Z,44752
2023-04-02T14:51:16.439Z,31712
2023-04-02T14:52:56.820Z,23136
2023-04-02T14:54:40.267Z,16805
2023-04-02T14:56:17.509Z,15352
2023-04-02T14:57:57.939Z,16286
2023-04-02T14:59:38.279Z,16868
2023-04-02T15:01:18.790Z,51016
2023-04-02T15:02:59.421Z,19272
2023-04-02T15:04:39.602Z,21120
2023-04-02T15:06:19.967Z,19960
2023-04-02T15:08:00.424Z,24664
2023-04-02T15:09:40.844Z,23296
2023-04-02T15:11:21.206Z,20520
2023-04-02T15:13:01.568Z,18464
2023-04-02T15:14:42.010Z,15625
2023-04-02T15:16:22.422Z,15370
2023-04-02T15:18:03.191Z,15973
2023-04-02T15:19:43.765Z,16324
2023-04-02T15:21:24.188Z,16015
2023-04-02T15:23:04.578Z,42256
2023-04-02T15:24:45.017Z,25088
2023-04-02T15:26:25.476Z,43320
2023-04-02T15:28:05.806Z,45360
2023-04-02T15:29:46.167Z,44776
2023-04-02T15:31:26.643Z,27720
2023-04-02T15:33:06.863Z,27456
2023-04-02T15:34:47.204Z,38280
2023-04-02T15:36:27.537Z,35848
2023-04-02T15:38:07.893Z,25008
2023-04-02T15:39:48.306Z,39192
2023-04-02T15:41:28.622Z,12817
2023-04-02T15:43:09.000Z,13741
2023-04-02T15:44:49.234Z,20056
2023-04-02T15:46:29.622Z,16680
2023-04-02T15:48:10.130Z,32272
2023-04-02T15:49:50.523Z,23816
2023-04-02T15:51:30.946Z,33648
2023-04-02T15:53:11.424Z,19992
2023-04-02T15:54:51.775Z,41416
2023-04-02T15:56:32.233Z,24264
2023-04-02T15:58:12.611Z,17544
2023-04-02T15:59:53.049Z,15780
2023-04-02T16:01:33.480Z,16216
2023-04-02T16:03:13.776Z,16736
2023-04-02T16:04:54.056Z,14222
2023-04-02T16:06:34.405Z,12046
2023-04-02T16:08:14.828Z,10842
2023-04-02T16:09:55.404Z,10302
2023-04-02T16:11:35.667Z,9148
2023-04-02T16:13:16.077Z,8322
2023-04-02T16:14:56.404Z,7324
2023-04-02T16:16:36.897Z,6669
2023-04-02T16:18:17.269Z,7170
2023-04-02T16:19:57.585Z,6558
2023-04-02T16:21:38.045Z,6328
2023-04-02T16:23:18.388Z,5926
2023-04-02T16:25:05.922Z,5901
2023-04-02T16:26:39.226Z,5949
2023-04-02T16:28:19.714Z,5993
2023-04-02T16:30:00.127Z,6006
2023-04-02T16:31:40.469Z,5954
2023-04-02T16:33:20.843Z,5360
2023-04-02T16:35:15.244Z,4724
2023-04-02T16:36:41.664Z,4335
2023-04-02T16:38:22.012Z,4021
2023-04-02T16:40:02.420Z,3614
2023-04-02T16:41:42.778Z,3480
2023-04-02T16:43:23.173Z,3561
2023-04-02T16:45:03.624Z,3658
2023-04-02T16:46:43.914Z,3780
2023-04-02T16:48:24.253Z,3748
2023-04-02T16:50:04.749Z,3734
2023-04-02T16:51:45.009Z,3737
2023-04-02T16:53:25.450Z,3538
2023-04-02T16:55:05.811Z,3347
2023-04-02T16:56:46.163Z,3229
2023-04-02T16:58:26.637Z,3163
2023-04-02T17:00:07.094Z,3105
2023-04-02T17:01:47.604Z,3026
2023-04-02T17:03:28.024Z,2975
2023-04-02T17:05:08.315Z,2933
2023-04-02T17:06:48.824Z,2863
2023-04-02T17:08:29.191Z,2797
2023-04-02T17:10:09.580Z,2805
2023-04-02T17:11:50.022Z,2749
2023-04-02T17:13:30.400Z,2629
2023-04-02T17:15:20.618Z,2440
2023-04-02T17:16:51.290Z,2241
2023-04-02T17:18:31.584Z,1971
2023-04-02T17:20:11.983Z,1771
2023-04-02T17:21:52.358Z,1686
2023-04-02T17:23:34.001Z,1587
2023-04-02T17:25:13.120Z,1448
2023-04-02T17:26:53.442Z,1276
2023-04-02T17:28:33.873Z,1131
2023-04-02T17:30:14.229Z,1015
2023-04-02T17:31:54.675Z,922
2023-04-02T17:33:38.084Z,817
2023-04-02T17:35:15.457Z,738
2023-04-02T17:36:55.790Z,680
2023-04-02T17:38:36.259Z,630
2023-04-02T17:40:16.714Z,569
2023-04-02T17:41:57.117Z,489
2023-04-02T17:43:37.475Z,425
2023-04-02T17:45:17.859Z,380
2023-04-02T17:46:58.303Z,340
2023-04-02T17:48:38.636Z,296
2023-04-02T17:50:19.014Z,262
2023-04-02T17:51:59.437Z,241
2023-04-02T17:53:39.880Z,221
2023-04-02T17:55:20.332Z,197
2023-04-02T17:57:00.770Z,170
2023-04-02T17:58:42.134Z,145
2023-04-02T18:00:21.490Z,121
2023-04-02T18:02:01.851Z,99
2023-04-02T18:03:42.292Z,82
2023-04-02T18:05:22.475Z,70
2023-04-02T18:07:02.796Z,60
2023-04-02T18:08:43.095Z,48
2023-04-02T18:10:23.397Z,37
2023-04-02T18:12:03.706Z,29
2023-04-02T18:13:43.985Z,23
2023-04-02T18:15:24.301Z,18
2023-04-02T18:17:04.738Z,13
2023-04-02T18:18:45.138Z,10
2023-04-02T18:20:25.548Z,7
2023-04-02T18:22:05.835Z,6
2023-04-02T18:23:46.237Z,4
2023-04-02T18:25:26.647Z,4
2023-04-02T18:27:07.073Z,2
2023-04-02T18:28:50.524Z,2
2023-04-02T18:30:27.913Z,2
2023-04-02T18:32:08.278Z,1
2023-04-02T18:33:48.667Z,0
2023-04-02T18:35:29.098Z,1
2023-04-02T18:37:09.534Z,0
2023-04-02T18:38:49.863Z,0
2023-04-02T18:40:37.628Z,0
2023-04-02T18:42:10.719Z,0
2023-04-02T18:43:51.104Z,0
2023-04-02T18:45:31.569Z,0
2023-04-02T18:47:11.886Z,0
2023-04-02T18:48:52.254Z,0
2023-04-02T18:50:36.029Z,0
2023-04-02T18:52:12.965Z,0
2023-04-02T18:53:53.293Z,0
2023-04-02T18:55:33.630Z,0
2023-04-02T18:57:13.917Z,0
2023-04-02T18:58:54.188Z,0
2023-04-02T19:00:35.031Z,0
2023-04-02T19:02:14.789Z,0
2023-04-02T19:03:55.202Z,0
2023-04-02T19:05:35.891Z,0
2023-04-02T19:07:18.886Z,0
2023-04-02T19:08:56.222Z,0
2023-04-02T19:10:36.534Z,0
2023-04-02T19:12:23.904Z,0
2023-04-02T19:13:57.231Z,0
2023-04-02T19:15:37.976Z,0
2023-04-02T19:17:17.976Z,0
2023-04-02T19:18:58.386Z,0
2023-04-02T19:20:38.768Z,0
2023-04-02T19:22:19.148Z,0
2023-04-02T19:23:59.480Z,0
2023-04-02T19:25:39.891Z,0
2023-04-02T19:27:20.307Z,0
2023-04-02T19:29:00.695Z,0
2023-04-02T19:30:44.092Z,0
2023-04-02T19:32:24.500Z,0
2023-04-02T19:34:01.751Z,0
2023-04-02T19:35:42.203Z,0
2023-04-02T19:37:22.575Z,0
2023-04-02T19:39:02.937Z,0
2023-04-02T19:40:43.320Z,0
2023-04-02T19:42:23.781Z,0
2023-04-02T19:44:04.118Z,0
2023-04-02T19:45:51.565Z,0
2023-04-02T19:47:24.959Z,0
2023-04-02T19:49:05.381Z,0
2023-04-02T19:50:45.600Z,0
2023-04-02T19:52:25.902Z,0
2023-04-02T19:54:06.223Z,0
2023-04-02T19:55:46.550Z,0
2023-04-02T19:57:26.991Z,0
2023-04-02T19:59:17.112Z,0
2023-04-02T20:00:47.833Z,0
2023-04-02T20:02:28.214Z,0
2023-04-02T20:04:08.573Z,0
2023-04-02T20:05:48.861Z,0
2023-04-02T20:07:29.279Z,0
2023-04-02T20:09:12.781Z,0
2023-04-02T20:10:50.072Z,0
2023-04-02T20:12:30.557Z,0
2023-04-02T20:14:10.750Z,0
2023-04-02T20:15:51.059Z,0
2023-04-02T20:17:31.471Z,0
2023-04-02T20:19:11.885Z,0
2023-04-02T20:20:52.221Z,0
2023-04-02T20:22:32.651Z,0
2023-04-02T20:24:13.041Z,0
2023-04-02T20:25:53.388Z,0
2023-04-02T20:27:33.856Z,0
2023-04-02T20:29:14.260Z,0
2023-04-02T20:30:54.675Z,0
2023-04-02T20:32:36.563Z,0
2023-04-02T20:34:15.579Z,0
2023-04-02T20:35:55.856Z,0
2023-04-02T20:37:36.159Z,0
2023-04-02T20:39:16.508Z,0
2023-04-02T20:40:56.886Z,0
2023-04-02T20:42:37.372Z,0
2023-04-02T20:44:17.731Z,0
2023-04-02T20:45:58.143Z,0
2023-04-02T20:47:38.558Z,0
2023-04-02T20:49:18.943Z,0
2023-04-02T20:50:59.295Z,0
2023-04-02T20:52:39.584Z,0
2023-04-02T20:54:20.032Z,0
2023-04-02T20:56:00.470Z,0
2023-04-02T20:57:43.880Z,0
2023-04-02T20:59:21.285Z,0
2023-04-02T21:01:01.688Z,0
2023-04-02T21:02:42.144Z,0
2023-04-02T21:04:22.524Z,0
2023-04-02T21:06:02.911Z,0
2023-04-02T21:07:43.280Z,0
2023-04-02T21:09:23.756Z,0
2023-04-02T21:11:04.095Z,0
2023-04-02T21:12:44.468Z,0
2023-04-02T21:14:24.766Z,0
2023-04-02T21:16:05.131Z,0
2023-04-02T21:17:45.390Z,0
2023-04-02T21:19:25.657Z,0
2023-04-02T21:21:06.101Z,0
2023-04-02T21:22:46.505Z,0
2023-04-02T21:24:26.871Z,0
2023-04-02T21:26:07.255Z,0
2023-04-02T21:27:47.607Z,0
2023-04-02T21:29:28.008Z,0
2023-04-02T21:31:08.403Z,0
2023-04-02T21:32:48.854Z,0
2023-04-02T21:34:29.177Z,0
2023-04-02T21:36:09.614Z,0
2023-04-02T21:37:49.924Z,0
2023-04-02T21:39:30.405Z,0
2023-04-02T21:41:10.850Z,0
2023-04-02T21:42:51.209Z,0
2023-04-02T21:44:31.572Z,0
2023-04-02T21:46:11.975Z,0
2023-04-02T21:47:52.433Z,0
2023-04-02T21:49:32.847Z,0
2023-04-02T21:51:13.214Z,0
2023-04-02T21:52:53.600Z,0
2023-04-02T21:54:34.015Z,0
2023-04-02T21:56:14.389Z,0
2023-04-02T21:57:54.755Z,0
2023-04-02T21:59:35.078Z,0
2023-04-02T22:01:26.663Z,0
2023-04-02T22:02:55.947Z,0
2023-04-02T22:04:36.362Z,0
2023-04-02T22:06:16.728Z,0
2023-04-02T22:07:57.135Z,0
2023-04-02T22:09:37.565Z,0
2023-04-02T22:11:17.865Z,0
2023-04-02T22:12:58.267Z,0
2023-04-02T22:14:38.609Z,0
2023-04-02T22:16:18.958Z,0
2023-04-02T22:17:59.415Z,0
2023-04-02T22:19:39.793Z,0
2023-04-02T22:21:20.220Z,0
2023-04-02T22:23:00.611Z,0
2023-04-02T22:24:41.123Z,0
2023-04-02T22:26:21.457Z,0
2023-04-02T22:28:01.789Z,0
2023-04-02T22:29:42.124Z,0
2023-04-02T22:31:22.574Z,0
2023-04-02T22:33:03.060Z,0
2023-04-02T22:34:43.326Z,0
2023-04-02T22:36:23.672Z,0
2023-04-02T22:38:04.002Z,0
2023-04-02T22:39:44.335Z,0
2023-04-02T22:41:24.648Z,0
2023-04-02T22:43:04.951Z,0
2023-04-02T22:44:45.285Z,0
2023-04-02T22:46:25.755Z,0
2023-04-02T22:48:06.007Z,0
2023-04-02T22:49:46.481Z,0
2023-04-02T22:51:26.891Z,0
2023-04-02T22:53:07.279Z,0
2023-04-02T22:54:47.690Z,0
2023-04-02T22:56:28.080Z,0
2023-04-02T22:58:08.403Z,0
2023-04-02T22:59:48.816Z,0
2023-04-02T23:01:29.251Z,0
2023-04-02T23:03:09.646Z,0